createdAt,value
2023-03-18T00:00:55.730Z,1.85
2023-03-18T00:01:29.867Z,1.85
2023-03-18T00:02:43.134Z,1.92
2023-03-18T00:03:22.722Z,1.88
2023-03-18T00:03:55.418Z,1.96
2023-03-18T00:04:58.892Z,2.09
2023-03-18T00:05:31.206Z,2.13
2023-03-18T00:06:40.615Z,2.20
2023-03-18T00:07:14.744Z,2.18
2023-03-18T00:07:48.048Z,2.12
2023-03-18T00:08:21.870Z,2.03
2023-03-18T00:09:29.025Z,2.05
2023-03-18T00:10:00.815Z,2.06
2023-03-18T00:10:35.134Z,2.02
2023-03-18T00:11:42.291Z,1.98
2023-03-18T00:12:17.125Z,1.99
2023-03-18T00:12:55.281Z,1.97
2023-03-18T00:13:35.682Z,2.03
2023-03-18T00:14:47.686Z,2.06
2023-03-18T00:16:01.672Z,1.96
2023-03-18T00:17:12.353Z,1.93
2023-03-18T00:18:20.525Z,1.93
2023-03-18T00:18:54.900Z,1.94
2023-03-18T00:19:30.410Z,1.93
2023-03-18T00:20:06.085Z,1.99
2023-03-18T00:20:40.653Z,2.08
2023-03-18T00:21:46.048Z,2.04
2023-03-18T00:22:19.495Z,2.12
2023-03-18T00:23:23.777Z,2.06
2023-03-18T00:23:58.879Z,2.02
2023-03-18T00:24:32.166Z,2.06
2023-03-18T00:25:08.219Z,2.07
2023-03-18T00:25:43.072Z,2.09
2023-03-18T00:26:18.735Z,2.13
2023-03-18T00:26:50.700Z,2.15
2023-03-18T00:27:26.337Z,2.18
2023-03-18T00:27:59.125Z,2.19
2023-03-18T00:28:32.812Z,2.15
2023-03-18T00:29:50.851Z,2.09
2023-03-18T00:30:26.256Z,2.08
2023-03-18T00:31:08.785Z,2.05
2023-03-18T00:31:41.031Z,2.04
2023-03-18T00:32:16.624Z,2.16
2023-03-18T00:32:50.209Z,2.12
2023-03-18T00:33:25.814Z,2.12
2023-03-18T00:34:01.088Z,2.15
2023-03-18T00:34:36.316Z,2.16
2023-03-18T00:35:45.465Z,2.07
2023-03-18T00:36:25.574Z,2.20
2023-03-18T00:37:01.472Z,2.13
2023-03-18T00:37:35.907Z,2.06
2023-03-18T00:38:10.080Z,2.06
2023-03-18T00:38:46.086Z,2.06
2023-03-18T00:39:26.333Z,2.08
2023-03-18T00:40:20.877Z,2.08
2023-03-18T00:41:28.129Z,2.07
2023-03-18T00:42:40.225Z,2.10
2023-03-18T00:43:52.843Z,2.12
2023-03-18T00:45:03.922Z,2.22
2023-03-18T00:45:41.140Z,2.19
2023-03-18T00:46:16.491Z,2.18
2023-03-18T00:47:02.307Z,2.17
2023-03-18T00:47:38.754Z,2.24
2023-03-18T00:48:11.546Z,2.19
2023-03-18T00:48:45.108Z,2.18
2023-03-18T00:49:19.600Z,2.17
2023-03-18T00:49:53.572Z,2.17
2023-03-18T00:50:26.580Z,2.22
2023-03-18T00:51:05.171Z,2.19
2023-03-18T00:52:19.835Z,2.15
2023-03-18T00:52:53.625Z,2.18
2023-03-18T00:53:27.312Z,2.17
2023-03-18T00:54:08.189Z,2.23
2023-03-18T00:54:40.260Z,2.18
2023-03-18T00:55:45.335Z,2.15
2023-03-18T00:56:31.011Z,2.15
2023-03-18T00:57:38.222Z,2.11
2023-03-18T00:58:13.888Z,2.12
2023-03-18T00:59:19.430Z,2.10
2023-03-18T00:59:54.267Z,2.05
2023-03-18T01:00:29.088Z,2.06
2023-03-18T01:01:09.880Z,2.05
2023-03-18T01:01:44.950Z,2.06
2023-03-18T01:02:25.116Z,2.10
2023-03-18T01:03:00.525Z,2.10
2023-03-18T01:03:43.652Z,2.11
2023-03-18T01:04:17.937Z,2.13
2023-03-18T01:05:21.393Z,2.14
2023-03-18T01:05:53.974Z,2.16
2023-03-18T01:06:25.900Z,2.14
2023-03-18T01:06:57.953Z,2.18
2023-03-18T01:08:01.341Z,2.15
2023-03-18T01:08:36.695Z,2.15
2023-03-18T01:09:44.847Z,2.14
2023-03-18T01:10:49.495Z,2.13
2023-03-18T01:11:57.378Z,2.08
2023-03-18T01:12:32.000Z,2.10
2023-03-18T01:13:05.307Z,2.11
2023-03-18T01:13:40.608Z,2.07
2023-03-18T01:14:15.609Z,2.08
2023-03-18T01:14:48.431Z,2.06
2023-03-18T01:15:24.100Z,2.05
2023-03-18T01:15:56.508Z,2.06
2023-03-18T01:17:02.479Z,2.09
2023-03-18T01:17:35.324Z,2.11
2023-03-18T01:18:49.643Z,2.12
2023-03-18T01:19:22.361Z,2.12
2023-03-18T01:19:57.112Z,2.10
2023-03-18T01:20:36.022Z,2.09
2023-03-18T01:21:09.010Z,2.09
2023-03-18T01:21:45.018Z,2.07
2023-03-18T01:22:20.071Z,2.09
2023-03-18T01:22:52.883Z,2.06
2023-03-18T01:23:30.341Z,2.04
2023-03-18T01:24:06.093Z,2.02
2023-03-18T01:24:45.188Z,2.03
2023-03-18T01:25:18.999Z,2.02
2023-03-18T01:25:52.858Z,2.08
2023-03-18T01:26:37.068Z,2.03
2023-03-18T01:27:13.097Z,2.03
2023-03-18T01:27:46.615Z,2.00
2023-03-18T01:28:19.022Z,2.03
2023-03-18T01:28:52.641Z,1.99
2023-03-18T01:29:26.385Z,2.01
2023-03-18T01:30:01.325Z,1.99
2023-03-18T01:31:05.621Z,2.00
2023-03-18T01:31:38.000Z,2.02
2023-03-18T01:32:45.452Z,2.02
2023-03-18T01:33:20.270Z,1.99
2023-03-18T01:33:54.911Z,2.02
2023-03-18T01:34:28.778Z,1.99
2023-03-18T01:35:02.760Z,1.96
2023-03-18T01:35:38.635Z,1.97
2023-03-18T01:36:12.656Z,1.99
2023-03-18T01:37:35.453Z,1.99
2023-03-18T01:38:42.577Z,1.94
2023-03-18T01:39:15.556Z,1.94
2023-03-18T01:39:48.742Z,1.90
2023-03-18T01:40:54.127Z,1.89
2023-03-18T01:41:30.358Z,1.85
2023-03-18T01:42:06.494Z,1.82
2023-03-18T01:43:40.836Z,1.88
2023-03-18T01:44:20.703Z,1.90
2023-03-18T01:44:56.035Z,1.92
2023-03-18T01:45:29.279Z,1.92
2023-03-18T01:46:39.486Z,1.93
2023-03-18T01:47:42.728Z,1.91
2023-03-18T01:48:19.953Z,1.85
2023-03-18T01:48:53.621Z,1.86
2023-03-18T01:49:35.501Z,1.87
2023-03-18T01:50:08.049Z,1.91
2023-03-18T01:50:41.217Z,1.87
2023-03-18T01:51:15.143Z,1.81
2023-03-18T01:52:27.268Z,1.87
2023-03-18T01:53:07.224Z,1.88
2023-03-18T01:54:14.486Z,1.87
2023-03-18T01:54:55.650Z,1.90
2023-03-18T01:55:29.313Z,1.93
2023-03-18T01:56:40.849Z,2.00
2023-03-18T01:57:17.516Z,1.96
2023-03-18T01:57:51.839Z,1.91
2023-03-18T01:58:43.040Z,1.94
2023-03-18T01:59:17.125Z,1.89
2023-03-18T01:59:53.647Z,1.91
2023-03-18T02:00:40.535Z,1.94
2023-03-18T02:02:09.557Z,1.95
2023-03-18T02:02:50.799Z,1.98
2023-03-18T02:03:26.205Z,1.98
2023-03-18T02:04:09.241Z,2.02
2023-03-18T02:04:42.828Z,2.03
2023-03-18T02:05:21.995Z,2.06
2023-03-18T02:05:57.299Z,2.01
2023-03-18T02:06:38.701Z,1.97
2023-03-18T02:07:18.313Z,1.97
2023-03-18T02:07:53.932Z,1.94
2023-03-18T02:08:33.369Z,1.94
2023-03-18T02:09:13.203Z,1.91
2023-03-18T02:09:52.600Z,1.91
2023-03-18T02:10:32.895Z,1.89
2023-03-18T02:11:12.457Z,1.87
2023-03-18T02:11:50.205Z,1.78
2023-03-18T02:12:23.333Z,1.79
2023-03-18T02:13:02.883Z,1.81
2023-03-18T02:13:37.446Z,1.80
2023-03-18T02:14:17.943Z,1.75
2023-03-18T02:14:53.488Z,1.84
2023-03-18T02:15:28.937Z,1.91
2023-03-18T02:16:04.245Z,1.88
2023-03-18T02:16:52.916Z,1.88
2023-03-18T02:17:32.249Z,1.83
2023-03-18T02:18:56.586Z,1.82
2023-03-18T02:19:57.359Z,1.79
2023-03-18T02:20:59.909Z,1.76
2023-03-18T02:22:07.125Z,1.73
2023-03-18T02:23:10.028Z,1.71
2023-03-18T02:24:23.544Z,1.67
2023-03-18T02:25:04.992Z,1.81
2023-03-18T02:26:18.250Z,1.87
2023-03-18T02:27:15.106Z,1.77
2023-03-18T02:28:59.698Z,1.78
2023-03-18T02:29:42.641Z,1.71
2023-03-18T02:30:54.298Z,1.70
2023-03-18T02:32:05.141Z,1.65
2023-03-18T02:32:40.188Z,1.65
2023-03-18T02:33:21.474Z,1.62
2023-03-18T02:33:56.406Z,1.68
2023-03-18T02:34:41.320Z,1.62
2023-03-18T02:35:14.578Z,1.62
2023-03-18T02:36:03.266Z,1.70
2023-03-18T02:36:41.522Z,1.75
2023-03-18T02:37:16.550Z,1.79
2023-03-18T02:37:53.382Z,1.69
2023-03-18T02:38:26.615Z,1.67
2023-03-18T02:39:42.393Z,1.67
2023-03-18T02:40:34.289Z,1.62
2023-03-18T02:41:50.599Z,1.51
2023-03-18T02:42:32.407Z,1.49
2023-03-18T02:43:10.284Z,1.51
2023-03-18T02:43:48.299Z,1.53
2023-03-18T02:44:24.112Z,1.49
2023-03-18T02:46:15.074Z,1.48
2023-03-18T02:47:28.153Z,1.56
2023-03-18T02:48:07.351Z,1.60
2023-03-18T02:48:40.296Z,1.63
2023-03-18T02:49:21.978Z,1.56
2023-03-18T02:50:01.324Z,1.52
2023-03-18T02:50:42.307Z,1.53
2023-03-18T02:51:24.908Z,1.51
2023-03-18T02:52:05.156Z,1.55
2023-03-18T02:52:43.459Z,1.57
2023-03-18T02:53:18.600Z,1.58
2023-03-18T02:53:56.257Z,1.54
2023-03-18T02:54:32.044Z,1.52
2023-03-18T02:55:08.219Z,1.56
2023-03-18T02:56:17.774Z,1.55
2023-03-18T02:57:36.146Z,1.47
2023-03-18T02:58:11.699Z,1.53
2023-03-18T02:58:51.781Z,1.57
2023-03-18T02:59:32.556Z,1.60
2023-03-18T03:00:12.505Z,1.61
2023-03-18T03:00:51.265Z,1.50
2023-03-18T03:01:30.080Z,1.55
2023-03-18T03:02:37.741Z,1.58
2023-03-18T03:03:18.715Z,1.59
2023-03-18T03:03:54.289Z,1.60
2023-03-18T03:04:33.601Z,1.56
2023-03-18T03:05:13.141Z,1.58
2023-03-18T03:05:54.346Z,1.65
2023-03-18T03:07:03.632Z,1.66
2023-03-18T03:07:45.838Z,1.66
2023-03-18T03:08:21.286Z,1.69
2023-03-18T03:08:57.502Z,1.68
2023-03-18T03:09:38.075Z,1.67
2023-03-18T03:10:20.788Z,1.65
2023-03-18T03:11:00.276Z,1.61
2023-03-18T03:11:40.865Z,1.66
2023-03-18T03:12:22.086Z,1.66
2023-03-18T03:12:56.966Z,1.62
2023-03-18T03:13:38.298Z,1.58
2023-03-18T03:14:17.930Z,1.60
2023-03-18T03:14:56.798Z,1.56
2023-03-18T03:15:38.636Z,1.64
2023-03-18T03:17:16.623Z,1.61
2023-03-18T03:17:56.757Z,1.60
2023-03-18T03:18:35.661Z,1.63
2023-03-18T03:19:10.800Z,1.64
2023-03-18T03:20:27.283Z,1.68
2023-03-18T03:21:06.683Z,1.68
2023-03-18T03:21:44.623Z,1.67
2023-03-18T03:22:23.125Z,1.69
2023-03-18T03:23:03.319Z,1.78
2023-03-18T03:24:15.587Z,1.79
2023-03-18T03:25:36.242Z,1.76
2023-03-18T03:26:19.417Z,1.81
2023-03-18T03:26:59.179Z,1.81
2023-03-18T03:27:39.281Z,1.85
2023-03-18T03:28:17.972Z,1.85
2023-03-18T03:28:51.484Z,1.87
2023-03-18T03:29:26.584Z,1.90
2023-03-18T03:30:05.378Z,1.98
2023-03-18T03:30:45.699Z,1.91
2023-03-18T03:31:18.539Z,1.90
2023-03-18T03:31:57.629Z,1.89
2023-03-18T03:32:33.208Z,1.93
2023-03-18T03:33:11.516Z,1.86
2023-03-18T03:33:46.614Z,1.90
2023-03-18T03:34:21.279Z,1.91
2023-03-18T03:34:53.122Z,1.97
2023-03-18T03:35:35.955Z,1.99
2023-03-18T03:36:14.849Z,1.95
2023-03-18T03:36:48.362Z,1.90
2023-03-18T03:37:30.642Z,1.86
2023-03-18T03:38:09.665Z,1.85
2023-03-18T03:38:50.616Z,1.86
2023-03-18T03:39:30.802Z,1.86
2023-03-18T03:40:18.384Z,1.92
2023-03-18T03:40:52.747Z,1.89
2023-03-18T03:41:32.289Z,1.89
2023-03-18T03:42:11.665Z,1.88
2023-03-18T03:42:53.861Z,1.94
2023-03-18T03:43:36.431Z,1.96
2023-03-18T03:44:17.359Z,1.94
2023-03-18T03:44:56.538Z,1.96
2023-03-18T03:45:35.580Z,1.91
2023-03-18T03:46:15.590Z,1.90
2023-03-18T03:46:56.291Z,1.92
2023-03-18T03:47:36.336Z,1.95
2023-03-18T03:48:14.681Z,1.99
2023-03-18T03:48:50.266Z,2.00
2023-03-18T03:49:27.606Z,1.96
2023-03-18T03:50:17.212Z,1.95
2023-03-18T03:50:57.339Z,1.88
2023-03-18T03:51:36.622Z,1.84
2023-03-18T03:52:18.345Z,1.89
2023-03-18T03:52:58.636Z,1.91
2023-03-18T03:53:40.971Z,1.92
2023-03-18T03:54:20.119Z,1.92
2023-03-18T03:55:00.935Z,1.91
2023-03-18T03:55:41.382Z,1.90
2023-03-18T03:56:20.570Z,1.91
2023-03-18T03:56:56.175Z,1.90
2023-03-18T03:57:31.865Z,1.90
2023-03-18T03:58:09.707Z,1.91
2023-03-18T03:58:45.940Z,1.94
2023-03-18T03:59:24.158Z,1.94
2023-03-18T04:00:03.325Z,1.96
2023-03-18T04:00:42.735Z,1.93
2023-03-18T04:02:39.556Z,1.96
2023-03-18T04:03:21.488Z,1.85
2023-03-18T04:04:00.683Z,1.86
2023-03-18T04:04:39.474Z,1.91
2023-03-18T04:05:17.749Z,1.84
2023-03-18T04:06:28.192Z,1.82
2023-03-18T04:07:07.847Z,1.85
2023-03-18T04:07:47.459Z,1.86
2023-03-18T04:08:29.658Z,1.84
2023-03-18T04:09:05.148Z,1.84
2023-03-18T04:09:43.628Z,1.87
2023-03-18T04:10:21.449Z,1.82
2023-03-18T04:11:04.733Z,1.88
2023-03-18T04:11:46.834Z,1.80
2023-03-18T04:12:25.972Z,1.83
2023-03-18T04:13:08.174Z,1.93
2023-03-18T04:13:50.639Z,1.82
2023-03-18T04:14:29.621Z,1.82
2023-03-18T04:15:08.180Z,1.81
2023-03-18T04:15:48.070Z,1.74
2023-03-18T04:16:28.548Z,1.81
2023-03-18T04:17:08.034Z,1.88
2023-03-18T04:17:42.051Z,1.85
2023-03-18T04:18:17.319Z,1.84
2023-03-18T04:18:57.744Z,1.78
2023-03-18T04:19:37.590Z,1.81
2023-03-18T04:20:24.914Z,1.79
2023-03-18T04:21:41.684Z,1.77
2023-03-18T04:22:24.149Z,1.75
2023-03-18T04:22:58.633Z,1.78
2023-03-18T04:24:08.204Z,1.78
2023-03-18T04:24:46.683Z,1.74
2023-03-18T04:25:22.503Z,1.75
2023-03-18T04:26:32.000Z,1.76
2023-03-18T04:27:43.840Z,1.78
2023-03-18T04:29:03.864Z,1.83
2023-03-18T04:30:32.429Z,1.86
2023-03-18T04:31:11.348Z,1.78
2023-03-18T04:31:51.496Z,1.75
2023-03-18T04:34:22.866Z,1.83
2023-03-18T04:35:01.145Z,1.88
2023-03-18T04:35:37.822Z,1.96
2023-03-18T04:36:16.310Z,1.92
2023-03-18T04:36:51.908Z,1.86
2023-03-18T04:37:25.606Z,1.93
2023-03-18T04:38:12.414Z,1.86
2023-03-18T04:38:51.903Z,1.88
2023-03-18T04:39:32.093Z,1.84
2023-03-18T04:40:12.318Z,1.87
2023-03-18T04:40:52.890Z,1.84
2023-03-18T04:42:26.456Z,1.82
2023-03-18T04:43:05.652Z,1.80
2023-03-18T04:43:44.772Z,1.77
2023-03-18T04:44:25.060Z,1.75
2023-03-18T04:45:05.496Z,1.73
2023-03-18T04:45:45.755Z,1.77
2023-03-18T04:46:30.178Z,1.82
2023-03-18T04:47:05.202Z,1.76
2023-03-18T04:47:45.634Z,1.81
2023-03-18T04:48:20.747Z,1.73
2023-03-18T04:48:59.565Z,1.69
2023-03-18T04:49:35.021Z,1.64
2023-03-18T04:50:15.465Z,1.68
2023-03-18T04:50:55.233Z,1.63
2023-03-18T04:51:28.747Z,1.64
2023-03-18T04:52:04.920Z,1.66
2023-03-18T04:52:45.252Z,1.69
2023-03-18T04:54:24.336Z,1.65
2023-03-18T04:55:03.946Z,1.69
2023-03-18T04:55:44.213Z,1.67
2023-03-18T04:56:24.186Z,1.67
2023-03-18T04:56:59.793Z,1.61
2023-03-18T04:57:40.711Z,1.55
2023-03-18T04:58:20.225Z,1.53
2023-03-18T04:58:52.869Z,1.51
2023-03-18T04:59:34.634Z,1.58
2023-03-18T05:00:12.650Z,1.58
2023-03-18T05:00:51.712Z,1.63
2023-03-18T05:01:24.489Z,1.61
2023-03-18T05:02:00.134Z,1.59
2023-03-18T05:02:39.630Z,1.65
2023-03-18T05:03:18.579Z,1.61
2023-03-18T05:03:57.767Z,1.59
2023-03-18T05:04:39.913Z,1.61
2023-03-18T05:05:18.691Z,1.67
2023-03-18T05:06:23.864Z,1.59
2023-03-18T05:06:57.410Z,1.57
2023-03-18T05:07:32.208Z,1.49
2023-03-18T05:08:11.670Z,1.55
2023-03-18T05:08:50.425Z,1.51
2023-03-18T05:09:30.562Z,1.48
2023-03-18T05:10:42.484Z,1.42
2023-03-18T05:11:20.847Z,1.38
2023-03-18T05:11:55.899Z,1.33
2023-03-18T05:12:43.633Z,1.32
2023-03-18T05:13:24.410Z,1.23
2023-03-18T05:14:02.437Z,1.29
2023-03-18T05:14:37.727Z,1.31
2023-03-18T05:15:16.999Z,1.31
2023-03-18T05:15:55.666Z,1.34
2023-03-18T05:16:34.533Z,1.31
2023-03-18T05:17:17.025Z,1.37
2023-03-18T05:17:58.075Z,1.32
2023-03-18T05:18:36.186Z,1.34
2023-03-18T05:19:18.647Z,1.37
2023-03-18T05:19:57.501Z,1.40
2023-03-18T05:20:39.781Z,1.26
2023-03-18T05:21:12.415Z,1.27
2023-03-18T05:21:45.844Z,1.26
2023-03-18T05:22:22.140Z,1.24
2023-03-18T05:22:58.371Z,1.26
2023-03-18T05:23:37.394Z,1.29
2023-03-18T05:24:18.389Z,1.29
2023-03-18T05:24:53.222Z,1.37
2023-03-18T05:25:32.664Z,1.31
2023-03-18T05:26:05.945Z,1.30
2023-03-18T05:26:44.770Z,1.37
2023-03-18T05:27:28.556Z,1.34
2023-03-18T05:28:09.524Z,1.34
2023-03-18T05:28:45.034Z,1.35
2023-03-18T05:29:24.357Z,1.35
2023-03-18T05:29:59.344Z,1.39
2023-03-18T05:30:39.740Z,1.47
2023-03-18T05:31:18.828Z,1.41
2023-03-18T05:31:57.715Z,1.43
2023-03-18T05:32:36.827Z,1.43
2023-03-18T05:33:15.678Z,1.43
2023-03-18T05:33:54.674Z,1.44
2023-03-18T05:34:38.452Z,1.50
2023-03-18T05:36:13.500Z,1.56
2023-03-18T05:36:52.248Z,1.54
2023-03-18T05:38:10.604Z,1.59
2023-03-18T05:38:49.632Z,1.66
2023-03-18T05:40:10.106Z,1.58
2023-03-18T05:40:50.307Z,1.67
2023-03-18T05:41:24.416Z,1.66
2023-03-18T05:42:06.163Z,1.62
2023-03-18T05:42:55.022Z,1.66
2023-03-18T05:43:34.666Z,1.76
2023-03-18T05:44:14.826Z,1.82
2023-03-18T05:44:50.681Z,1.80
2023-03-18T05:45:29.238Z,1.79
2023-03-18T05:46:08.779Z,1.83
2023-03-18T05:47:16.748Z,1.91
2023-03-18T05:47:48.527Z,1.93
2023-03-18T05:49:09.210Z,2.08
2023-03-18T05:49:49.829Z,2.09
2023-03-18T05:51:10.527Z,2.08
2023-03-18T05:51:46.459Z,2.09
2023-03-18T05:52:21.301Z,2.12
2023-03-18T05:53:00.985Z,2.16
2023-03-18T05:53:40.328Z,2.13
2023-03-18T05:54:22.815Z,2.16
2023-03-18T05:54:55.777Z,2.18
2023-03-18T05:55:34.497Z,2.21
2023-03-18T05:56:14.943Z,2.21
2023-03-18T05:56:55.669Z,2.27
2023-03-18T05:57:30.292Z,2.33
2023-03-18T05:58:04.258Z,2.37
2023-03-18T05:58:43.851Z,2.39
2023-03-18T05:59:24.204Z,2.44
2023-03-18T06:00:06.366Z,2.50
2023-03-18T06:00:44.952Z,2.44
2023-03-18T06:01:20.329Z,2.44
2023-03-18T06:01:55.273Z,2.52
2023-03-18T06:02:35.300Z,2.54
2023-03-18T06:03:46.887Z,2.55
2023-03-18T06:05:00.159Z,2.71
2023-03-18T06:06:19.882Z,2.81
2023-03-18T06:06:58.778Z,2.87
2023-03-18T06:07:39.521Z,2.80
2023-03-18T06:08:18.190Z,2.87
2023-03-18T06:08:58.619Z,3.03
2023-03-18T06:09:37.041Z,3.10
2023-03-18T06:10:18.175Z,3.00
2023-03-18T06:10:58.495Z,3.04
2023-03-18T06:11:40.244Z,3.03
2023-03-18T06:12:20.463Z,3.05
2023-03-18T06:13:01.209Z,3.12
2023-03-18T06:14:19.509Z,3.00
2023-03-18T06:14:53.119Z,3.02
2023-03-18T06:15:36.027Z,3.20
2023-03-18T06:16:16.654Z,3.11
2023-03-18T06:16:55.577Z,3.13
2023-03-18T06:17:34.778Z,3.21
2023-03-18T06:18:17.264Z,3.17
2023-03-18T06:18:56.735Z,3.10
2023-03-18T06:20:02.867Z,3.12
2023-03-18T06:21:22.786Z,3.00
2023-03-18T06:22:49.838Z,3.21
2023-03-18T06:23:25.919Z,3.32
2023-03-18T06:24:05.247Z,3.28
2023-03-18T06:25:15.779Z,3.35
2023-03-18T06:25:56.671Z,3.44
2023-03-18T06:26:35.749Z,3.36
2023-03-18T06:28:47.375Z,3.29
2023-03-18T06:29:25.361Z,3.48
2023-03-18T06:30:05.677Z,3.55
2023-03-18T06:31:32.466Z,3.59
2023-03-18T06:32:50.987Z,3.61
2023-03-18T06:33:31.361Z,3.61
2023-03-18T06:34:09.219Z,3.58
2023-03-18T06:34:50.670Z,3.56
2023-03-18T06:35:30.495Z,3.75
2023-03-18T06:36:11.822Z,3.61
2023-03-18T06:37:00.517Z,3.66
2023-03-18T06:37:35.728Z,3.69
2023-03-18T06:38:17.137Z,3.66
2023-03-18T06:39:00.050Z,3.63
2023-03-18T06:39:35.341Z,3.83
2023-03-18T06:40:10.752Z,3.77
2023-03-18T06:40:49.074Z,3.60
2023-03-18T06:42:06.339Z,3.76
2023-03-18T06:42:48.838Z,3.66
2023-03-18T06:43:30.693Z,3.70
2023-03-18T06:44:13.350Z,3.80
2023-03-18T06:44:50.814Z,3.72
2023-03-18T06:45:30.883Z,3.90
2023-03-18T06:46:14.896Z,3.78
2023-03-18T06:46:53.842Z,3.87
2023-03-18T06:47:35.931Z,3.81
2023-03-18T06:48:15.616Z,3.81
2023-03-18T06:48:54.686Z,3.92
2023-03-18T06:49:33.690Z,3.95
2023-03-18T06:50:14.256Z,4.07
2023-03-18T06:50:54.523Z,4.14
2023-03-18T06:51:34.444Z,4.03
2023-03-18T06:52:10.012Z,4.17
2023-03-18T06:52:51.562Z,4.28
2023-03-18T06:53:30.705Z,4.24
2023-03-18T06:54:10.429Z,4.22
2023-03-18T06:54:52.784Z,4.26
2023-03-18T06:56:14.513Z,4.44
2023-03-18T06:56:54.137Z,4.60
2023-03-18T06:57:59.413Z,4.68
2023-03-18T07:00:05.107Z,4.60
2023-03-18T07:00:43.317Z,4.82
2023-03-18T07:01:19.688Z,4.80
2023-03-18T07:02:39.892Z,4.87
2023-03-18T07:05:26.698Z,5.15
2023-03-18T07:06:06.472Z,5.19
2023-03-18T07:07:19.849Z,5.22
2023-03-18T07:08:32.452Z,5.23
2023-03-18T07:09:51.181Z,5.36
2023-03-18T07:10:30.793Z,5.35
2023-03-18T07:11:10.503Z,5.30
2023-03-18T07:11:48.865Z,5.43
2023-03-18T07:12:26.786Z,5.44
2023-03-18T07:13:04.917Z,5.35
2023-03-18T07:13:40.375Z,5.45
2023-03-18T07:14:20.477Z,5.50
2023-03-18T07:14:58.982Z,5.34
2023-03-18T07:15:41.333Z,5.41
2023-03-18T07:16:14.386Z,5.57
2023-03-18T07:16:53.353Z,5.69
2023-03-18T07:17:34.212Z,5.67
2023-03-18T07:18:14.360Z,5.83
2023-03-18T07:19:05.303Z,5.71
2023-03-18T07:19:44.933Z,5.70
2023-03-18T07:20:24.263Z,5.77
2023-03-18T07:21:04.802Z,5.63
2023-03-18T07:21:46.045Z,5.79
2023-03-18T07:22:34.449Z,5.81
2023-03-18T07:25:18.421Z,6.03
2023-03-18T07:26:35.802Z,5.92
2023-03-18T07:28:05.138Z,6.05
2023-03-18T07:28:44.878Z,5.96
2023-03-18T07:29:21.584Z,6.03
2023-03-18T07:30:04.570Z,6.15
2023-03-18T07:30:43.722Z,6.23
2023-03-18T07:31:23.364Z,6.22
2023-03-18T07:32:04.102Z,6.11
2023-03-18T07:32:43.377Z,6.16
2023-03-18T07:33:21.572Z,6.18
2023-03-18T07:33:57.626Z,6.41
2023-03-18T07:35:05.772Z,6.27
2023-03-18T07:35:44.949Z,6.41
2023-03-18T07:36:24.436Z,6.48
2023-03-18T07:36:59.863Z,6.60
2023-03-18T07:37:36.092Z,6.64
2023-03-18T07:38:15.913Z,6.72
2023-03-18T07:39:32.039Z,6.72
2023-03-18T07:40:06.659Z,6.69
2023-03-18T07:40:38.424Z,6.72
2023-03-18T07:41:10.224Z,6.86
2023-03-18T07:41:42.022Z,6.77
2023-03-18T07:42:13.878Z,6.87
2023-03-18T07:42:45.896Z,6.90
2023-03-18T07:43:17.608Z,6.91
2023-03-18T07:45:02.848Z,6.80
2023-03-18T07:47:09.741Z,7.06
2023-03-18T07:47:47.094Z,7.14
2023-03-18T07:48:27.862Z,7.06
2023-03-18T07:49:08.546Z,7.01
2023-03-18T07:49:48.491Z,6.80
2023-03-18T07:50:24.391Z,7.05
2023-03-18T07:51:03.913Z,7.14
2023-03-18T07:51:42.858Z,7.10
2023-03-18T07:52:59.975Z,7.14
2023-03-18T07:53:35.427Z,7.13
2023-03-18T07:54:14.477Z,7.07
2023-03-18T07:55:41.977Z,7.16
2023-03-18T07:56:24.400Z,7.36
2023-03-18T07:57:05.264Z,7.24
2023-03-18T07:57:48.919Z,7.46
2023-03-18T07:58:29.174Z,7.53
2023-03-18T07:59:10.391Z,7.57
2023-03-18T07:59:42.180Z,7.52
2023-03-18T08:00:14.558Z,7.45
2023-03-18T08:00:46.427Z,7.45
2023-03-18T08:01:19.609Z,7.64
2023-03-18T08:01:51.304Z,7.71
2023-03-18T08:02:23.711Z,7.70
2023-03-18T08:02:55.461Z,7.56
2023-03-18T08:03:28.142Z,7.67
2023-03-18T08:03:59.984Z,7.72
2023-03-18T08:04:32.408Z,7.71
2023-03-18T08:05:06.998Z,7.81
2023-03-18T08:05:39.027Z,7.84
2023-03-18T08:06:11.484Z,7.89
2023-03-18T08:06:43.436Z,7.88
2023-03-18T08:07:58.486Z,7.97
2023-03-18T08:08:33.974Z,7.95
2023-03-18T08:09:55.940Z,7.77
2023-03-18T08:10:45.173Z,7.72
2023-03-18T08:12:02.781Z,7.75
2023-03-18T08:12:53.501Z,7.87
2023-03-18T08:13:36.413Z,7.86
2023-03-18T08:14:14.754Z,8.04
2023-03-18T08:14:53.492Z,7.96
2023-03-18T08:15:32.995Z,8.04
2023-03-18T08:16:12.490Z,8.00
2023-03-18T08:16:51.790Z,8.04
2023-03-18T08:17:33.152Z,7.99
2023-03-18T08:18:52.936Z,7.93
2023-03-18T08:19:34.756Z,7.97
2023-03-18T08:20:09.516Z,7.96
2023-03-18T08:20:48.459Z,7.93
2023-03-18T08:21:23.875Z,7.99
2023-03-18T08:21:58.802Z,7.98
2023-03-18T08:22:47.031Z,7.84
2023-03-18T08:23:27.246Z,7.93
2023-03-18T08:24:10.259Z,7.98
2023-03-18T08:24:50.548Z,8.08
2023-03-18T08:25:30.653Z,8.06
2023-03-18T08:26:10.320Z,8.12
2023-03-18T08:26:49.825Z,8.13
2023-03-18T08:27:28.945Z,8.03
2023-03-18T08:28:08.024Z,8.03
2023-03-18T08:28:47.552Z,8.03
2023-03-18T08:29:22.886Z,8.12
2023-03-18T08:30:03.766Z,8.16
2023-03-18T08:30:45.342Z,8.08
2023-03-18T08:31:32.423Z,8.00
2023-03-18T08:32:07.959Z,8.14
2023-03-18T08:32:48.561Z,8.18
2023-03-18T08:34:05.812Z,8.13
2023-03-18T08:34:41.727Z,8.14
2023-03-18T08:35:21.448Z,8.17
2023-03-18T08:36:04.630Z,8.24
2023-03-18T08:36:39.794Z,8.27
2023-03-18T08:37:16.288Z,8.32
2023-03-18T08:38:40.960Z,8.16
2023-03-18T08:40:30.890Z,8.46
2023-03-18T08:41:17.967Z,8.32
2023-03-18T08:41:57.927Z,8.40
2023-03-18T08:43:01.787Z,8.56
2023-03-18T08:44:21.891Z,8.56
2023-03-18T08:45:37.351Z,8.52
2023-03-18T08:48:24.669Z,8.78
2023-03-18T08:49:05.941Z,8.67
2023-03-18T08:49:44.857Z,8.55
2023-03-18T08:50:28.826Z,8.71
2023-03-18T08:51:13.650Z,8.69
2023-03-18T08:51:52.709Z,8.82
2023-03-18T08:52:30.999Z,8.77
2023-03-18T08:53:13.279Z,8.98
2023-03-18T08:53:56.190Z,8.91
2023-03-18T08:54:34.344Z,8.81
2023-03-18T08:56:03.260Z,8.82
2023-03-18T08:56:44.480Z,8.97
2023-03-18T08:58:01.482Z,9.13
2023-03-18T08:58:41.313Z,8.95
2023-03-18T08:59:20.340Z,8.96
2023-03-18T08:59:53.495Z,8.95
2023-03-18T09:00:40.974Z,9.11
2023-03-18T09:01:22.481Z,9.24
2023-03-18T09:02:01.888Z,9.27
2023-03-18T09:03:17.446Z,9.21
2023-03-18T09:04:00.186Z,9.28
2023-03-18T09:04:39.375Z,9.16
2023-03-18T09:05:19.387Z,9.10
2023-03-18T09:05:58.763Z,9.15
2023-03-18T09:06:37.903Z,9.38
2023-03-18T09:08:53.210Z,9.37
2023-03-18T09:09:43.241Z,9.32
2023-03-18T09:10:23.900Z,9.26
2023-03-18T09:11:03.368Z,9.34
2023-03-18T09:11:42.562Z,9.37
2023-03-18T09:12:20.861Z,9.49
2023-03-18T09:13:03.526Z,9.57
2023-03-18T09:13:43.987Z,9.41
2023-03-18T09:14:23.737Z,9.31
2023-03-18T09:15:04.941Z,9.25
2023-03-18T09:15:42.168Z,9.41
2023-03-18T09:16:19.866Z,9.56
2023-03-18T09:17:56.653Z,9.57
2023-03-18T09:18:43.551Z,9.66
2023-03-18T09:19:23.526Z,9.64
2023-03-18T09:20:03.143Z,9.60
2023-03-18T09:20:42.702Z,9.74
2023-03-18T09:21:22.631Z,9.88
2023-03-18T09:22:01.698Z,9.67
2023-03-18T09:22:44.416Z,9.63
2023-03-18T09:23:23.554Z,9.59
2023-03-18T09:24:10.952Z,9.88
2023-03-18T09:24:49.965Z,9.95
2023-03-18T09:25:29.002Z,9.97
2023-03-18T09:26:09.123Z,9.95
2023-03-18T09:26:48.328Z,9.83
2023-03-18T09:27:27.764Z,9.65
2023-03-18T09:28:03.318Z,9.77
2023-03-18T09:28:42.525Z,9.77
2023-03-18T09:29:30.415Z,9.88
2023-03-18T09:30:09.600Z,9.83
2023-03-18T09:30:48.573Z,10.06
2023-03-18T09:31:23.598Z,9.98
2023-03-18T09:32:11.588Z,9.89
2023-03-18T09:32:50.775Z,9.93
2023-03-18T09:33:28.810Z,10.02
2023-03-18T09:34:07.522Z,10.00
2023-03-18T09:34:46.566Z,10.21
2023-03-18T09:35:25.633Z,10.30
2023-03-18T09:35:59.926Z,10.33
2023-03-18T09:36:38.999Z,10.15
2023-03-18T09:37:18.157Z,9.97
2023-03-18T09:38:29.876Z,10.13
2023-03-18T09:39:11.767Z,10.03
2023-03-18T09:39:47.993Z,10.04
2023-03-18T09:40:36.820Z,10.16
2023-03-18T09:41:51.262Z,10.14
2023-03-18T09:42:51.673Z,10.24
2023-03-18T09:44:08.560Z,10.18
2023-03-18T09:44:56.896Z,10.18
2023-03-18T09:46:23.122Z,10.23
2023-03-18T09:47:22.468Z,10.20
2023-03-18T09:48:04.413Z,10.24
2023-03-18T09:49:01.921Z,10.22
2023-03-18T09:50:21.886Z,10.26
2023-03-18T09:50:59.565Z,10.16
2023-03-18T09:51:52.426Z,10.10
2023-03-18T09:52:46.021Z,10.25
2023-03-18T09:53:25.586Z,10.33
2023-03-18T09:54:21.660Z,10.44
2023-03-18T09:55:14.816Z,10.47
2023-03-18T09:55:56.741Z,10.17
2023-03-18T09:56:39.184Z,10.21
2023-03-18T09:57:43.330Z,10.09
2023-03-18T09:58:56.505Z,10.48
2023-03-18T09:59:35.762Z,10.59
2023-03-18T10:00:14.558Z,10.71
2023-03-18T10:01:02.723Z,10.64
2023-03-18T10:02:20.617Z,10.74
2023-03-18T10:03:42.744Z,10.68
2023-03-18T10:04:21.809Z,10.45
2023-03-18T10:05:15.372Z,10.58
2023-03-18T10:05:54.680Z,10.60
2023-03-18T10:06:43.270Z,10.75
2023-03-18T10:07:22.051Z,10.86
2023-03-18T10:08:19.554Z,10.74
2023-03-18T10:08:58.525Z,10.77